Time;durP1;ratioP1;P1;durP2;ratioP2;P2;SDS_P1;SDS_P2;PMS_P1;PMS_P2;Temp;Humidity;BMP_temperature;BMP_pressure;BME280_temperature;BME280_humidity;BME280_pressure;Samples;Min_cycle;Max_cycle;Signal;HPM_P1;HPM_P2
2021/08/19 00:01:31;;;;;;;4.70;4.20;;;;;;;17.58;78.60;99429.19;1637466;86;21026;-74
2021/08/19 00:03:59;;;;;;;6.72;3.58;;;;;;;17.62;78.88;99439.73;1637408;87;21566;-75
2021/08/19 00:06:27;;;;;;;4.03;3.70;;;;;;;17.64;78.79;99440.25;1659495;86;21127;-74
2021/08/19 00:08:55;;;;;;;4.15;3.20;;;;;;;17.68;78.76;99444.78;1637490;87;21503;-71
2021/08/19 00:11:21;;;;;;;4.28;3.72;;;;;;;17.71;78.85;99437.92;1637014;86;20996;-72
2021/08/19 00:13:49;;;;;;;4.28;2.70;;;;;;;17.73;79.22;99435.16;1657918;86;21532;-75
2021/08/19 00:16:17;;;;;;;5.15;3.90;;;;;;;17.76;79.54;99427.75;1643802;87;20987;-73
2021/08/19 00:18:45;;;;;;;6.12;4.10;;;;;;;17.77;79.57;99428.00;1646677;86;20995;-76
2021/08/19 00:21:11;;;;;;;3.60;3.33;;;;;;;17.77;80.05;99425.84;1646791;86;21053;-72
2021/08/19 00:23:38;;;;;;;4.78;3.30;;;;;;;17.74;80.43;99423.73;1627035;87;21075;-73
2021/08/19 00:26:06;;;;;;;4.37;3.67;;;;;;;17.70;80.93;99428.14;1641688;86;21258;-75
2021/08/19 00:28:33;;;;;;;4.08;2.77;;;;;;;17.69;81.04;99436.08;1642841;86;21549;-76
2021/08/19 00:31:01;;;;;;;4.90;3.25;;;;;;;17.69;81.22;99438.25;1646623;86;21013;-73
2021/08/19 00:33:29;;;;;;;3.85;3.35;;;;;;;17.67;80.94;99432.28;1646877;86;21171;-72
2021/08/19 00:35:57;;;;;;;4.37;3.58;;;;;;;17.63;81.06;99431.84;1646232;86;20912;-74
2021/08/19 00:38:23;;;;;;;4.50;3.15;;;;;;;17.56;81.46;99422.67;1647075;87;21062;-73
2021/08/19 00:40:51;;;;;;;5.17;3.30;;;;;;;17.44;81.92;99421.84;1645978;87;21710;-73
2021/08/19 00:43:19;;;;;;;4.47;3.12;;;;;;;17.33;82.48;99420.95;1651675;86;21053;-75
2021/08/19 00:45:47;;;;;;;3.80;3.02;;;;;;;17.20;82.83;99425.28;1620313;88;21034;-75
2021/08/19 00:48:15;;;;;;;5.22;3.72;;;;;;;17.14;83.54;99428.38;1620340;87;20967;-73
2021/08/19 00:50:43;;;;;;;3.60;2.95;;;;;;;17.06;84.01;99423.09;1619353;87;21544;-74
2021/08/19 00:53:11;;;;;;;4.20;3.20;;;;;;;16.98;84.34;99416.97;1637396;87;20998;-73
2021/08/19 00:55:39;;;;;;;3.50;3.02;;;;;;;16.90;83.80;99415.75;1643303;85;21074;-75
2021/08/19 00:58:07;;;;;;;3.08;2.80;;;;;;;16.85;83.30;99409.59;1641988;87;20940;-77
2021/08/19 01:00:33;;;;;;;3.85;3.20;;;;;;;16.80;82.41;99421.35;1642227;86;21043;-77
2021/08/19 01:03:01;;;;;;;5.22;2.92;;;;;;;16.76;81.18;99416.27;1675491;85;21007;-77
2021/08/19 01:05:30;;;;;;;4.10;3.65;;;;;;;16.74;81.12;99419.81;1633535;87;21516;-77
2021/08/19 01:07:58;;;;;;;3.87;3.17;;;;;;;16.71;81.37;99425.05;1646972;86;21070;-75
2021/08/19 01:10:27;;;;;;;4.12;2.95;;;;;;;16.69;81.56;99423.97;1646928;87;21550;-76
2021/08/19 01:12:54;;;;;;;6.80;3.10;;;;;;;16.66;81.16;99425.12;1646905;86;20972;-76
2021/08/19 01:15:23;;;;;;;3.75;3.42;;;;;;;16.65;81.19;99427.03;1641492;86;21543;-76
2021/08/19 01:17:56;;;;;;;3.80;3.20;;;;;;;16.62;81.39;99422.20;1624541;87;20988;-78
2021/08/19 01:20:32;;;;;;;6.03;3.70;;;;;;;16.61;81.76;99421.13;1651176;86;21056;-77
2021/08/19 01:22:59;;;;;;;7.67;3.27;;;;;;;16.56;82.11;99420.63;1651072;86;21086;-76
2021/08/19 01:25:26;;;;;;;6.00;3.12;;;;;;;16.55;82.26;99429.87;1621689;86;21530;-76
2021/08/19 01:27:54;;;;;;;3.25;2.70;;;;;;;16.50;82.71;99428.04;1621685;87;20988;-76
2021/08/19 01:30:23;;;;;;;3.10;2.87;;;;;;;16.45;82.93;99424.63;1621857;86;21080;-76
2021/08/19 01:32:49;;;;;;;3.58;3.25;;;;;;;16.40;82.81;99421.98;1621922;86;21092;-77
2021/08/19 01:35:27;;;;;;;7.30;3.25;;;;;;;16.37;82.64;99419.84;1636473;87;21599;-74
2021/08/19 01:37:54;;;;;;;7.97;3.80;;;;;;;16.37;83.09;99428.79;1637936;86;21050;-77
2021/08/19 01:40:22;;;;;;;9.90;3.15;;;;;;;16.35;83.25;99421.52;1637805;87;20975;-76
2021/08/19 01:42:52;;;;;;;4.15;2.95;;;;;;;16.30;83.61;99426.20;1630327;87;21027;-77
2021/08/19 01:45:21;;;;;;;5.62;3.58;;;;;;;16.25;83.97;99428.44;1649846;85;36174;-78
2021/08/19 01:47:49;;;;;;;4.50;2.90;;;;;;;16.19;84.05;99439.10;1637735;87;20991;-78
2021/08/19 01:50:17;;;;;;;4.00;3.08;;;;;;;16.16;84.21;99456.52;1627825;87;21035;-76
2021/08/19 01:52:45;;;;;;;3.60;3.25;;;;;;;16.14;84.56;99455.45;1622321;86;21119;-75
2021/08/19 01:55:13;;;;;;;7.05;3.40;;;;;;;16.16;85.07;99453.81;1621900;88;21016;-77
2021/08/19 01:57:39;;;;;;;3.67;3.33;;;;;;;16.16;85.58;99458.69;1621958;88;21048;-77
2021/08/19 02:00:07;;;;;;;3.58;3.25;;;;;;;16.18;85.99;99459.19;1621964;86;21806;-81
2021/08/19 02:02:37;;;;;;;4.05;3.12;;;;;;;16.20;86.29;99452.13;1621425;88;20969;-76
2021/08/19 02:05:07;;;;;;;5.83;3.30;;;;;;;16.18;86.57;99451.05;1621736;88;21048;-75
2021/08/19 02:07:34;;;;;;;8.00;3.20;;;;;;;16.16;86.90;99455.16;1621771;86;21100;-76
2021/08/19 02:10:02;;;;;;;5.67;3.55;;;;;;;16.13;87.42;99445.69;1621753;88;21051;-75
2021/08/19 02:12:29;;;;;;;5.03;3.70;;;;;;;16.14;87.96;99439.17;1624347;87;21293;-76
2021/08/19 02:14:55;;;;;;;4.00;3.67;;;;;;;16.16;88.67;99446.48;1640181;86;21031;-76
2021/08/19 02:17:23;;;;;;;3.95;3.15;;;;;;;16.17;89.17;99449.97;1646735;86;21035;-76
2021/08/19 02:19:49;;;;;;;4.17;3.47;;;;;;;16.18;89.69;99444.81;1643714;86;21573;-77
2021/08/19 02:22:17;;;;;;;9.33;3.85;;;;;;;16.19;90.14;99444.53;1642050;87;21086;-77
2021/08/19 02:24:44;;;;;;;4.08;3.02;;;;;;;16.19;90.47;99451.86;1663939;86;21091;-76
2021/08/19 02:27:10;;;;;;;5.33;4.00;;;;;;;16.16;90.73;99454.63;1663804;85;21560;-77
2021/08/19 02:29:37;;;;;;;5.92;4.22;;;;;;;16.14;90.94;99456.80;1641850;85;21152;-77
2021/08/19 02:32:08;;;;;;;6.47;3.80;;;;;;;16.09;91.39;99458.23;1641945;87;21088;-77
2021/08/19 02:34:34;;;;;;;4.62;4.22;;;;;;;16.04;91.89;99446.89;1665512;85;21084;-77
2021/08/19 02:37:00;;;;;;;3.87;3.35;;;;;;;16.02;92.53;99453.14;1642046;85;21961;-78
2021/08/19 02:39:27;;;;;;;7.90;5.62;;;;;;;16.01;92.91;99455.62;1664502;85;21055;-77
2021/08/19 02:41:53;;;;;;;4.60;3.80;;;;;;;16.02;93.13;99461.28;1641828;87;20959;-77
2021/08/19 02:44:21;;;;;;;4.62;3.98;;;;;;;16.04;93.26;99465.08;1641780;87;21524;-76
2021/08/19 02:46:47;;;;;;;4.12;3.72;;;;;;;16.09;93.43;99465.82;1641878;85;21083;-77
2021/08/19 02:49:13;;;;;;;4.92;4.42;;;;;;;16.12;93.40;99467.13;1668126;85;21015;-77
2021/08/19 02:51:41;;;;;;;4.28;3.55;;;;;;;16.16;93.40;99464.66;1646689;86;21579;-78
2021/08/19 02:54:09;;;;;;;4.03;3.72;;;;;;;16.17;93.45;99464.90;1633845;87;21015;-78
2021/08/19 02:56:35;;;;;;;4.30;3.45;;;;;;;16.16;93.35;99467.37;1646814;86;20999;-75
2021/08/19 02:59:02;;;;;;;5.85;4.35;;;;;;;16.13;93.48;99470.11;1633830;87;21117;-76
2021/08/19 03:01:29;;;;;;;8.30;4.37;;;;;;;16.15;93.63;99477.42;1628935;87;22739;-76
2021/08/19 03:03:55;;;;;;;5.30;4.40;;;;;;;16.16;93.41;99477.69;1670562;85;21032;-75
2021/08/19 03:06:22;;;;;;;8.10;4.40;;;;;;;16.18;93.38;99473.30;1644166;86;21031;-75
2021/08/19 03:08:48;;;;;;;10.63;4.67;;;;;;;16.19;93.31;99473.56;1664059;85;21084;-75
2021/08/19 03:11:16;;;;;;;8.70;5.08;;;;;;;16.19;93.08;99466.78;1641880;87;20987;-76
2021/08/19 03:13:43;;;;;;;5.30;4.10;;;;;;;16.11;93.04;99471.74;1664153;86;21085;-75
2021/08/19 03:16:09;;;;;;;4.33;4.00;;;;;;;16.07;93.01;99466.65;1638088;85;21576;-75
2021/08/19 03:18:36;;;;;;;7.35;4.30;;;;;;;16.04;92.86;99462.36;1655625;85;21615;-75
2021/08/19 03:21:04;;;;;;;6.37;4.15;;;;;;;16.01;92.61;99460.24;1643176;85;20987;-77
2021/08/19 03:23:32;;;;;;;4.03;3.62;;;;;;;15.93;90.55;99461.67;1638868;87;20994;-74
2021/08/19 03:25:59;;;;;;;4.80;4.35;;;;;;;15.86;91.14;99463.95;1625926;86;21647;-75
2021/08/19 03:28:25;;;;;;;4.72;4.33;;;;;;;15.80;89.57;99476.49;1654087;85;21060;-75
2021/08/19 03:30:54;;;;;;;7.53;4.62;;;;;;;15.79;89.62;99469.45;1674987;85;21052;-75
2021/08/19 03:33:20;;;;;;;7.17;4.08;;;;;;;15.79;89.90;99468.09;1681769;85;20993;-75
2021/08/19 03:35:47;;;;;;;4.17;3.77;;;;;;;15.73;90.25;99478.77;1681806;83;21089;-75
2021/08/19 03:38:14;;;;;;;4.85;4.00;;;;;;;15.69;90.23;99471.19;1703925;84;22034;-75
2021/08/19 03:40:41;;;;;;;4.90;4.42;;;;;;;15.65;90.25;99479.64;1639932;87;21027;-81
2021/08/19 03:43:08;;;;;;;4.00;3.70;;;;;;;15.65;89.74;99478.28;1642560;86;21058;-75
2021/08/19 03:45:34;;;;;;;8.68;4.97;;;;;;;15.63;89.82;99488.59;1660556;85;21127;-73
2021/08/19 03:48:01;;;;;;;10.25;4.85;;;;;;;15.66;89.65;99489.94;1603097;87;21015;-75
2021/08/19 03:50:30;;;;;;;4.10;3.75;;;;;;;15.73;89.57;99488.25;1609756;87;22141;-74
2021/08/19 03:52:56;;;;;;;4.60;4.15;;;;;;;15.73;88.64;99485.54;1643823;86;20996;-74
2021/08/19 03:55:23;;;;;;;5.25;3.83;;;;;;;15.76;88.05;99486.30;1652040;85;21056;-75
2021/08/19 03:57:51;;;;;;;7.37;4.00;;;;;;;15.78;88.08;99494.39;1636633;87;20973;-73
2021/08/19 04:00:18;;;;;;;5.62;3.87;;;;;;;15.85;88.18;99496.77;1640158;87;21111;-73
2021/08/19 04:02:46;;;;;;;6.53;4.92;;;;;;;15.92;88.30;99490.47;1654500;85;21123;-76
2021/08/19 04:05:13;;;;;;;8.15;5.22;;;;;;;15.93;87.91;99487.98;1636259;87;21052;-75
2021/08/19 04:07:40;;;;;;;4.92;4.05;;;;;;;15.87;87.92;99491.34;1636592;86;21572;-76
2021/08/19 04:10:08;;;;;;;8.48;3.52;;;;;;;15.81;87.80;99483.54;1636307;87;21560;-74
2021/08/19 04:12:35;;;;;;;8.10;4.28;;;;;;;15.77;87.90;99481.95;1637383;86;21127;-74
2021/08/19 04:15:03;;;;;;;5.78;4.70;;;;;;;15.77;87.25;99480.61;1629980;87;21136;-77
2021/08/19 04:17:31;;;;;;;6.30;5.50;;;;;;;15.74;87.78;99478.45;1631906;87;21581;-78
2021/08/19 04:19:58;;;;;;;9.30;4.75;;;;;;;15.68;88.97;99481.77;1651765;86;21050;-77
2021/08/19 04:22:24;;;;;;;5.67;3.60;;;;;;;15.65;89.70;99486.42;1584806;88;21026;-76
2021/08/19 04:24:51;;;;;;;9.73;6.12;;;;;;;15.69;88.68;99482.57;1617036;88;21543;-83
2021/08/19 04:27:18;;;;;;;6.17;4.97;;;;;;;15.72;88.62;99479.30;1617047;88;21991;-75
2021/08/19 04:29:45;;;;;;;7.75;4.92;;;;;;;15.78;87.95;99482.77;1604049;88;21049;-74
2021/08/19 04:32:12;;;;;;;12.82;7.35;;;;;;;15.78;86.80;99480.84;1604346;88;21026;-75
2021/08/19 04:34:38;;;;;;;17.17;7.90;;;;;;;15.76;85.92;99487.66;1655890;86;21595;-74
2021/08/19 04:37:06;;;;;;;11.93;5.25;;;;;;;15.79;86.39;99482.46;1638616;87;21586;-75
2021/08/19 04:39:34;;;;;;;12.03;6.60;;;;;;;15.89;85.91;99485.05;1638579;87;21164;-75
2021/08/19 04:42:01;;;;;;;8.75;5.35;;;;;;;15.98;85.72;99481.15;1625811;87;21011;-77
2021/08/19 04:44:29;;;;;;;5.72;4.35;;;;;;;16.01;84.05;99485.47;1640320;87;21525;-76
2021/08/19 04:46:57;;;;;;;9.15;4.60;;;;;;;15.96;84.41;99486.08;1626806;87;21098;-76
2021/08/19 04:49:24;;;;;;;5.20;4.20;;;;;;;15.91;84.05;99484.78;1605630;87;21627;-77
2021/08/19 04:51:52;;;;;;;8.55;6.12;;;;;;;15.97;84.08;99480.34;1639861;86;21044;-76
2021/08/19 04:54:19;;;;;;;13.38;6.35;;;;;;;16.03;84.07;99487.33;1638549;87;20952;-76
2021/08/19 04:56:46;;;;;;;14.35;6.65;;;;;;;16.02;82.85;99477.56;1638668;87;21016;-78
2021/08/19 04:59:13;;;;;;;8.80;4.60;;;;;;;16.04;83.52;99482.16;1638719;87;20975;-78
2021/08/19 05:01:40;;;;;;;12.55;6.20;;;;;;;15.95;82.21;99488.52;1640089;86;21020;-76
2021/08/19 05:04:06;;;;;;;8.15;5.55;;;;;;;15.94;82.87;99497.20;1626774;87;21036;-76
2021/08/19 05:06:33;;;;;;;7.53;4.25;;;;;;;16.00;83.13;99497.95;1640240;87;20983;-75
2021/08/19 05:09:04;;;;;;;10.43;5.35;;;;;;;16.11;83.21;99502.95;1640784;87;21039;-75
2021/08/19 05:11:31;;;;;;;4.90;3.85;;;;;;;16.25;83.48;99499.00;1640332;87;20913;-79
2021/08/19 05:13:59;;;;;;;7.95;4.05;;;;;;;16.24;83.24;99494.66;1640494;86;21036;-76
2021/08/19 05:16:26;;;;;;;4.35;3.47;;;;;;;16.11;83.93;99491.31;1600477;88;21558;-76
2021/08/19 05:18:55;;;;;;;9.38;6.58;;;;;;;16.17;84.25;99497.45;1617652;88;21519;-77
2021/08/19 05:21:21;;;;;;;11.03;6.47;;;;;;;16.28;84.10;99493.52;1596332;87;21062;-77
2021/08/19 05:23:49;;;;;;;6.25;4.55;;;;;;;16.39;84.46;99493.11;1646838;86;21525;-78
2021/08/19 05:26:16;;;;;;;5.35;4.28;;;;;;;16.52;84.42;99484.22;1644045;87;21621;-78
2021/08/19 05:28:45;;;;;;;5.22;4.53;;;;;;;16.46;84.18;99488.65;1667224;85;21969;-77
2021/08/19 05:31:12;;;;;;;5.58;4.65;;;;;;;16.30;84.58;99493.50;1619729;87;21076;-76
2021/08/19 05:33:40;;;;;;;3.87;3.47;;;;;;;16.36;84.30;99495.58;1637662;87;21031;-77
2021/08/19 05:36:12;;;;;;;7.20;4.80;;;;;;;16.46;84.05;99498.96;1632825;85;21067;-77
2021/08/19 05:38:40;;;;;;;5.97;3.92;;;;;;;16.57;84.21;99507.78;1602721;87;21036;-78
2021/08/19 05:41:08;;;;;;;7.00;5.05;;;;;;;16.69;83.86;99516.88;1623974;87;21132;-79
2021/08/19 05:43:36;;;;;;;10.60;4.92;;;;;;;16.54;85.63;99521.41;1638715;87;21067;-76
2021/08/19 05:46:12;;;;;;;7.12;4.00;;;;;;;16.43;86.24;99521.82;1640371;87;21513;-77
2021/08/19 05:48:42;;;;;;;6.10;3.80;;;;;;;16.46;85.66;99515.25;1640346;87;21534;-74
2021/08/19 05:51:11;;;;;;;5.67;3.95;;;;;;;16.56;85.74;99511.59;1613889;87;21521;-78
2021/08/19 05:53:40;;;;;;;4.67;4.05;;;;;;;16.65;85.24;99505.78;1640038;87;21935;-77
2021/08/19 05:56:07;;;;;;;4.47;3.95;;;;;;;16.66;84.25;99501.16;1640050;87;21019;-77
2021/08/19 05:58:34;;;;;;;5.72;3.87;;;;;;;16.55;85.00;99501.81;1641554;86;21030;-76
2021/08/19 06:01:02;;;;;;;4.70;3.50;;;;;;;16.60;85.44;99499.61;1640271;87;21032;-77
2021/08/19 06:03:29;;;;;;;6.12;3.35;;;;;;;16.73;84.18;99509.75;1610683;88;21074;-76
2021/08/19 06:05:55;;;;;;;5.53;4.70;;;;;;;16.85;83.81;99505.48;1593304;87;21158;-78
2021/08/19 06:08:23;;;;;;;5.33;4.15;;;;;;;16.99;83.84;99506.89;1641381;87;21607;-74
2021/08/19 06:10:51;;;;;;;5.35;4.20;;;;;;;17.14;83.51;99505.83;1641385;87;21584;-76
2021/08/19 06:13:18;;;;;;;4.55;4.05;;;;;;;17.24;82.91;99502.39;1659577;85;21058;-75
2021/08/19 06:15:46;;;;;;;4.50;4.00;;;;;;;17.34;82.99;99508.21;1641720;85;21595;-75
2021/08/19 06:18:14;;;;;;;4.85;3.50;;;;;;;17.46;82.85;99505.03;1630624;88;21008;-75
2021/08/19 06:20:41;;;;;;;5.33;3.50;;;;;;;17.56;82.69;99504.27;1638946;85;20948;-76
2021/08/19 06:23:11;;;;;;;4.00;3.52;;;;;;;17.64;80.12;99503.63;1639233;87;21602;-81
2021/08/19 06:25:38;;;;;;;3.75;2.80;;;;;;;17.75;78.16;99504.20;1613536;88;21027;-76
2021/08/19 06:28:04;;;;;;;4.00;3.52;;;;;;;17.81;75.68;99499.74;1613537;87;21059;-74
2021/08/19 06:30:32;;;;;;;3.60;3.17;;;;;;;17.88;76.03;99495.27;1612875;87;21188;-73
2021/08/19 06:33:02;;;;;;;6.83;4.15;;;;;;;17.93;74.99;99492.45;1638689;87;21583;-76
2021/08/19 06:35:29;;;;;;;5.67;3.62;;;;;;;17.95;74.79;99492.94;1603744;87;21512;-75
2021/08/19 06:37:56;;;;;;;6.20;3.30;;;;;;;18.03;74.73;99494.97;1638388;87;21017;-75
2021/08/19 06:40:23;;;;;;;17.37;6.40;;;;;;;18.12;73.51;99499.94;1638473;87;20968;-78
2021/08/19 06:42:50;;;;;;;5.97;3.15;;;;;;;18.11;72.96;99498.87;1638477;87;21988;-84
2021/08/19 06:45:17;;;;;;;4.33;3.47;;;;;;;18.00;71.82;99509.16;1625132;87;21007;-75
2021/08/19 06:47:45;;;;;;;5.37;3.35;;;;;;;18.05;73.31;99507.70;1638564;87;21068;-76
2021/08/19 06:50:11;;;;;;;3.22;2.92;;;;;;;18.15;72.97;99510.77;1638796;87;21115;-76
2021/08/19 06:52:41;;;;;;;4.22;2.90;;;;;;;18.23;72.25;99509.48;1639719;87;20997;-78
2021/08/19 06:55:10;;;;;;;4.00;3.60;;;;;;;18.33;71.94;99506.30;1649175;85;21189;-77
2021/08/19 06:57:37;;;;;;;4.58;3.10;;;;;;;18.43;71.53;99510.16;1670629;85;21032;-79
2021/08/19 07:00:08;;;;;;;4.97;3.72;;;;;;;18.54;71.35;99509.68;1625294;87;21044;-77
2021/08/19 07:02:37;;;;;;;4.17;3.77;;;;;;;18.69;70.51;99506.61;1638356;87;21055;-77
2021/08/19 07:05:06;;;;;;;6.50;3.52;;;;;;;18.85;69.80;99509.77;1625100;87;21075;-77
2021/08/19 07:07:35;;;;;;;5.95;3.02;;;;;;;18.89;66.05;99512.70;1639191;86;21762;-75
2021/08/19 07:10:07;;;;;;;5.05;3.87;;;;;;;18.96;68.37;99522.05;1639841;85;21003;-78
2021/08/19 07:12:34;;;;;;;5.35;4.65;;;;;;;18.81;66.49;99525.68;1638580;87;21086;-80
2021/08/19 07:15:04;;;;;;;5.05;4.03;;;;;;;18.70;68.71;99522.41;1638543;87;21023;-75
2021/08/19 07:17:30;;;;;;;4.35;3.20;;;;;;;18.70;68.37;99525.91;1643407;87;21016;-77
2021/08/19 07:19:57;;;;;;;5.42;3.08;;;;;;;18.73;68.61;99519.87;1645178;86;21101;-75
2021/08/19 07:22:23;;;;;;;3.90;3.55;;;;;;;18.77;69.13;99512.42;1645164;86;21598;-74
2021/08/19 07:24:52;;;;;;;5.20;3.30;;;;;;;18.82;69.24;99513.12;1631986;87;21035;-77
2021/08/19 07:27:20;;;;;;;11.03;4.17;;;;;;;18.91;69.48;99518.08;1644064;85;21043;-75
2021/08/19 07:29:47;;;;;;;5.42;3.25;;;;;;;19.00;68.65;99512.13;1645247;87;21012;-76
2021/08/19 07:32:18;;;;;;;4.15;3.70;;;;;;;19.15;68.55;99514.48;1645025;86;21052;-78
2021/08/19 07:34:44;;;;;;;6.08;4.00;;;;;;;19.38;67.72;99504.36;1645236;87;21615;-76
2021/08/19 07:37:12;;;;;;;4.75;4.20;;;;;;;19.53;67.24;99508.09;1632105;87;20943;-78
2021/08/19 07:39:38;;;;;;;5.10;3.87;;;;;;;19.54;64.87;99510.26;1632362;87;21142;-76
2021/08/19 07:42:07;;;;;;;6.53;3.85;;;;;;;19.40;65.71;99507.59;1645349;86;20968;-77
2021/08/19 07:44:37;;;;;;;9.55;5.35;;;;;;;19.36;66.63;99490.80;1645198;87;21181;-75
2021/08/19 07:47:07;;;;;;;10.75;4.72;;;;;;;19.37;67.08;99491.86;1645540;86;21513;-80
2021/08/19 07:49:33;;;;;;;4.97;3.37;;;;;;;19.34;67.51;99491.10;1633659;87;21043;-78
2021/08/19 07:52:00;;;;;;;4.50;3.90;;;;;;;19.35;67.72;99497.37;1633200;87;21066;-79
2021/08/19 07:54:28;;;;;;;4.72;3.12;;;;;;;19.40;68.16;99498.60;1645335;86;21070;-79
2021/08/19 07:56:56;;;;;;;5.40;3.40;;;;;;;19.48;68.03;99503.31;1632557;86;21659;-79
2021/08/19 07:59:25;;;;;;;6.03;3.62;;;;;;;19.65;67.58;99510.24;1645440;86;20960;-79
2021/08/19 08:01:53;;;;;;;4.35;3.83;;;;;;;19.89;67.29;99514.77;1645864;86;21485;-79
2021/08/19 08:04:19;;;;;;;7.22;4.08;;;;;;;20.13;65.80;99515.73;1644865;87;21099;-81
2021/08/19 08:06:47;;;;;;;5.97;3.70;;;;;;;20.21;64.32;99512.77;1641792;86;21074;-79
2021/08/19 08:09:15;;;;;;;8.73;4.22;;;;;;;20.14;63.99;99513.80;1645093;87;21161;-78
2021/08/19 08:11:43;;;;;;;5.12;3.42;;;;;;;20.01;64.33;99516.88;1642574;87;21016;-77
2021/08/19 08:14:11;;;;;;;7.72;3.83;;;;;;;20.01;63.15;99514.95;1631778;87;21004;-81
2021/08/19 08:16:38;;;;;;;4.05;3.12;;;;;;;19.99;63.15;99515.04;1643723;86;21060;-76
2021/08/19 08:19:04;;;;;;;10.08;4.37;;;;;;;19.96;62.91;99508.83;1612681;87;21107;-79
2021/08/19 08:21:31;;;;;;;8.98;5.08;;;;;;;19.95;63.12;99502.56;1654432;86;21225;-78
2021/08/19 08:24:00;;;;;;;4.65;3.90;;;;;;;19.98;63.34;99507.41;1624717;87;21031;-77
2021/08/19 08:26:27;;;;;;;8.23;3.58;;;;;;;20.05;62.44;99503.42;1640011;86;21071;-77
2021/08/19 08:28:56;;;;;;;5.17;3.92;;;;;;;20.12;62.94;99511.38;1644554;86;21618;-78
2021/08/19 08:31:22;;;;;;;4.00;3.65;;;;;;;20.21;62.11;99504.02;1644810;86;21317;-78
2021/08/19 08:33:51;;;;;;;4.53;3.62;;;;;;;20.25;60.50;99498.71;1638331;87;21059;-77
2021/08/19 08:36:18;;;;;;;6.42;4.55;;;;;;;20.29;60.06;99502.41;1638075;87;21034;-77
2021/08/19 08:38:49;;;;;;;4.60;3.37;;;;;;;20.42;60.56;99493.33;1656539;86;21531;-75
2021/08/19 08:41:19;;;;;;;5.75;3.62;;;;;;;20.46;60.55;99494.28;1639386;87;21995;-79
2021/08/19 08:43:47;;;;;;;5.35;4.25;;;;;;;20.46;60.55;99494.28;1594020;87;21067;-78
2021/08/19 08:46:18;;;;;;;5.90;4.45;;;;;;;20.47;60.72;99492.36;1620539;87;21242;-79
2021/08/19 08:48:46;;;;;;;8.83;4.70;;;;;;;20.52;60.79;99488.11;1642679;87;21054;-78
2021/08/19 08:51:14;;;;;;;10.32;5.25;;;;;;;20.55;60.94;99495.66;1618908;87;21066;-76
2021/08/19 08:53:42;;;;;;;5.97;4.78;;;;;;;20.54;59.19;99494.04;1642746;87;20970;-78
2021/08/19 08:56:09;;;;;;;7.15;4.90;;;;;;;20.57;58.29;99496.96;1662806;86;21075;-79
2021/08/19 08:58:37;;;;;;;4.47;4.08;;;;;;;20.62;57.62;99495.44;1642763;85;21300;-79
2021/08/19 09:01:03;;;;;;;7.70;4.95;;;;;;;20.58;59.06;99493.08;1624334;87;20964;-80
2021/08/19 09:03:30;;;;;;;6.30;4.20;;;;;;;20.62;60.30;99498.73;1641398;87;21091;-79
2021/08/19 09:05:58;;;;;;;5.53;3.95;;;;;;;20.65;60.31;99498.89;1612895;87;21639;-78
2021/08/19 09:08:26;;;;;;;4.17;3.60;;;;;;;20.69;59.73;99505.87;1609580;87;21036;-78
2021/08/19 09:10:57;;;;;;;9.58;4.53;;;;;;;20.67;56.89;99510.28;1610215;85;21374;-73
2021/08/19 09:13:30;;;;;;;5.55;4.30;;;;;;;20.67;56.46;99490.37;1635996;87;21139;-77
2021/08/19 09:16:19;;;;;;;4.85;4.05;;;;;;;20.69;56.62;99499.04;1638678;87;21050;-75
2021/08/19 09:18:49;;;;;;;5.95;4.58;;;;;;;20.73;56.70;99478.13;1635513;87;21101;-75
2021/08/19 09:21:24;;;;;;;5.15;4.65;;;;;;;20.81;56.13;99469.15;1638397;87;21058;-75
2021/08/19 09:24:12;;;;;;;6.53;4.55;;;;;;;20.80;56.76;99460.70;1656514;86;21034;-76
2021/08/19 09:26:39;;;;;;;5.47;4.37;;;;;;;20.80;56.19;99473.00;1614873;87;21158;-75
2021/08/19 09:29:26;;;;;;;6.03;4.30;;;;;;;20.75;55.71;99460.30;1606838;87;21014;-75
2021/08/19 09:32:15;;;;;;;6.35;5.17;;;;;;;20.65;55.10;99462.55;1610363;87;21016;-74
2021/08/19 09:34:46;;;;;;;6.97;4.78;;;;;;;20.54;56.35;99453.06;1634096;87;21000;-73
2021/08/19 09:37:17;;;;;;;5.42;4.92;;;;;;;20.52;56.83;99461.59;1640013;87;21052;-74
2021/08/19 09:39:46;;;;;;;5.10;3.98;;;;;;;20.48;55.48;99467.44;1624212;87;22252;-75
2021/08/19 09:42:13;;;;;;;4.05;3.55;;;;;;;20.55;55.69;99459.58;1641593;87;21076;-74
2021/08/19 09:44:43;;;;;;;8.65;5.45;;;;;;;20.66;56.11;99450.50;1624286;87;21079;-74
2021/08/19 09:47:32;;;;;;;4.47;3.85;;;;;;;20.76;55.34;99459.18;1609230;87;21099;-76
2021/08/19 09:50:23;;;;;;;7.15;4.65;;;;;;;20.82;55.05;99460.61;1664550;85;21024;-75
2021/08/19 09:52:52;;;;;;;6.53;4.85;;;;;;;20.90;54.98;99450.80;1639814;87;20972;-77
2021/08/19 09:55:29;;;;;;;5.28;4.20;;;;;;;21.02;54.35;99465.16;1639650;87;21072;-77
2021/08/19 09:57:59;;;;;;;5.10;4.58;;;;;;;21.06;53.66;99462.02;1619425;87;21584;-77
2021/08/19 10:00:38;;;;;;;6.83;5.03;;;;;;;21.08;53.56;99475.63;1640069;87;21040;-76
2021/08/19 10:03:04;;;;;;;5.97;4.55;;;;;;;21.06;53.69;99465.55;1640205;87;21082;-77
2021/08/19 10:05:31;;;;;;;7.20;4.47;;;;;;;21.02;53.18;99474.73;1639651;87;20936;-78
2021/08/19 10:07:59;;;;;;;5.50;4.58;;;;;;;20.96;53.64;99457.69;1639387;87;21120;-82
2021/08/19 10:10:29;;;;;;;8.40;4.10;;;;;;;21.03;53.92;99459.94;1639892;87;20972;-83
2021/08/19 10:12:58;;;;;;;6.72;4.75;;;;;;;21.08;52.67;99466.05;1640135;87;20987;-87
2021/08/19 10:15:25;;;;;;;10.18;4.42;;;;;;;21.09;51.59;99460.83;1621794;87;21191;-82
2021/08/19 10:17:55;;;;;;;6.80;4.83;;;;;;;21.12;51.07;99456.62;1639025;87;21031;-73
2021/08/19 10:20:28;;;;;;;6.22;4.53;;;;;;;21.19;51.54;99461.88;1669558;84;20998;-76
2021/08/19 10:22:57;;;;;;;5.45;3.65;;;;;;;21.30;51.15;99454.11;1645298;87;21045;-79
2021/08/19 10:25:26;;;;;;;7.42;4.60;;;;;;;21.39;49.25;99451.37;1637933;85;21115;-78
2021/08/19 10:28:16;;;;;;;5.12;4.17;;;;;;;21.39;49.34;99446.67;1634257;87;21085;-73
2021/08/19 10:30:59;;;;;;;6.70;4.08;;;;;;;21.35;48.82;99464.88;1646488;86;20984;-73
2021/08/19 10:33:41;;;;;;;6.65;3.42;;;;;;;21.37;49.56;99471.40;1647132;87;21027;-73
2021/08/19 10:36:13;;;;;;;7.83;3.72;;;;;;;21.41;49.32;99449.09;1623772;86;21047;-78
2021/08/19 10:38:42;;;;;;;4.28;3.65;;;;;;;21.46;49.31;99448.35;1656775;86;21116;-77
2021/08/19 10:41:34;;;;;;;7.58;4.45;;;;;;;21.44;49.70;99447.86;1645716;85;21132;-75
2021/08/19 10:44:32;;;;;;;5.20;4.15;;;;;;;21.48;49.81;99451.58;1641707;87;20939;-79
2021/08/19 10:47:00;;;;;;;5.25;4.08;;;;;;;21.57;48.53;99455.08;1641792;87;21036;-76
2021/08/19 10:49:34;;;;;;;8.68;4.65;;;;;;;21.57;48.59;99460.55;1641640;85;21080;-73
2021/08/19 10:52:12;;;;;;;5.25;3.95;;;;;;;21.61;48.25;99462.88;1641995;87;21134;-74
2021/08/19 10:54:41;;;;;;;7.42;4.92;;;;;;;21.66;47.24;99472.27;1641595;87;21547;-74
2021/08/19 10:57:30;;;;;;;4.75;3.67;;;;;;;21.73;47.41;99449.84;1639971;86;20991;-74
2021/08/19 11:00:11;;;;;;;6.15;3.98;;;;;;;21.82;47.50;99442.41;1641805;87;21671;-74
2021/08/19 11:02:46;;;;;;;4.00;3.50;;;;;;;21.95;46.75;99455.66;1652075;86;21126;-73
2021/08/19 11:05:30;;;;;;;4.92;3.95;;;;;;;22.03;45.49;99450.12;1641770;87;21592;-75
2021/08/19 11:08:01;;;;;;;12.18;3.85;;;;;;;22.09;45.45;99452.91;1641965;86;21671;-76
2021/08/19 11:10:30;;;;;;;5.35;4.05;;;;;;;22.16;45.89;99447.69;1643658;85;21046;-74
2021/08/19 11:13:08;;;;;;;3.52;2.98;;;;;;;22.29;45.90;99468.34;1646721;86;20967;-72
2021/08/19 11:15:39;;;;;;;4.10;3.60;;;;;;;22.40;45.23;99474.45;1643339;86;21083;-75
2021/08/19 11:18:06;;;;;;;5.58;4.35;;;;;;;22.52;45.24;99485.50;1640192;85;21120;-75
2021/08/19 11:20:34;;;;;;;4.87;3.77;;;;;;;22.60;44.63;99470.91;1612534;87;21052;-74
2021/08/19 11:23:09;;;;;;;6.28;3.65;;;;;;;22.64;44.31;99468.89;1612329;87;21503;-74
2021/08/19 11:25:39;;;;;;;6.55;3.67;;;;;;;22.65;43.30;99476.77;1638182;86;21542;-75
2021/08/19 11:28:17;;;;;;;3.95;3.20;;;;;;;22.55;42.90;99472.48;1638723;87;21012;-73
2021/08/19 11:30:48;;;;;;;4.53;3.67;;;;;;;22.60;42.78;99454.47;1640116;87;21067;-74
2021/08/19 11:33:22;;;;;;;3.77;3.45;;;;;;;22.73;43.18;99462.23;1640329;87;21015;-74
2021/08/19 11:35:53;;;;;;;3.75;3.00;;;;;;;22.89;42.79;99465.13;1641174;87;21055;-78
2021/08/19 11:38:22;;;;;;;3.52;3.10;;;;;;;23.03;42.43;99463.70;1641226;86;21072;-71
2021/08/19 11:40:51;;;;;;;4.10;3.52;;;;;;;23.16;42.51;99436.32;1669247;85;21020;-74